• Join FlightAware (Why Join?)
  • Login
  • US Flag 
10:10AM EDT


 

Airport Tracker/Info


-or-


 

Live Flight TrackerFlight Track Log ✈ ACA301 ✈ 10-May-2013 ✈ KDCA - CYYZ

Flight Track Log - Related Links

Times and Time Zones

All times are in EDT time to prevent confusion due to time zone crossing. See the ACA301 flight status page for this flight to view local times or setup timezone preferences in your user account.

Time Position Orientation Groundspeed Altitude Reporting Facility
EDT Latitude Longitude Course Direction KTS MPH feet Rate Location/Type
06:06AM 38.8833 -77.0500 333° Northwest 157 181 1,800  Level Potomac TRACON
06:08AM 39.1681 -77.2052 330° Northwest  Level FlightAware Approximate
06:08AM 38.9800 -77.1778 314° West 215 247 7,400  Level Washington Center
06:09AM 39.2531 -77.2443 337° Northwest  Level FlightAware Approximate
06:09AM 39.0122 -77.2639 296° West 240 276 9,000  Level Washington Center
06:10AM 39.3366 -77.2907 337° Northwest  Level FlightAware Approximate
06:10AM 39.0381 -77.3553 290° West 254 292 11,100  Level Washington Center
06:11AM 39.4189 -77.3403 333° Northwest  Level FlightAware Approximate
06:11AM 39.0825 -77.4472 302° West 278 320 12,800  Level Washington Center
06:12AM 39.1783 -77.4578 355° North 290 334 14,900 1,920 Climbing Washington Center
06:14AM 39.4131 -77.4572 360° North 365 420 19,200 1,800 Climbing New York Center
06:15AM 39.5194 -77.4567 360° North 382 440 20,900 1,980 Climbing New York Center
06:16AM 39.6300 -77.4564 360° North 387 445 23,200 2,100 Climbing New York Center
06:17AM 39.7339 -77.4636 357° North 382 440 25,100 1,980 Climbing New York Center
06:18AM 39.8319 -77.4972 345° North 377 434 27,200 2,280 Climbing New York Center
06:19AM 39.9281 -77.5308 345° North 366 421 29,700 1,380 Climbing New York Center
06:20AM 40.0181 -77.5639 344° North 354 407 30,000 120 Climbing New York Center
06:21AM 40.1244 -77.5986 346° North 348 400 30,000  Level New York Center
06:22AM 40.2142 -77.6319 344° North 348 400 30,000  Level New York Center
06:23AM 40.3061 -77.6656 344° North 348 400 30,000  Level New York Center
06:24AM 40.3981 -77.6992 344° North 348 400 30,000  Level New York Center
06:25AM 40.4897 -77.7331 344° North 348 400 30,000  Level New York Center
06:26AM 40.5836 -77.7672 345° North 348 400 30,000  Level New York Center
06:29AM 40.8561 -77.8653 345° North 357 411 30,000  Level Cleveland Center
06:30AM 40.9489 -77.9000 344° North 346 398 30,000  Level Cleveland Center
06:31AM 41.0414 -77.9347 344° North 341 392 30,000  Level Cleveland Center
06:32AM 41.1339 -77.9667 345° North 341 392 30,000  Level Cleveland Center
06:33AM 41.2242 -77.9989 345° North 341 392 30,000  Level Cleveland Center
06:34AM 41.3167 -78.0342 344° North 341 392 30,000  Level Cleveland Center
06:35AM 41.4197 -78.0744 344° North 346 398 30,000  Level Cleveland Center
06:36AM 41.5122 -78.1069 345° North 341 392 30,000  Level Cleveland Center
06:37AM 41.6047 -78.1422 344° North 341 392 30,000  Level Cleveland Center
06:38AM 41.6972 -78.1747 345° North 341 392 30,000 -480 Level Cleveland Center
06:39AM 41.7894 -78.2103 344° North 341 392 29,100 -1,020 Descending Cleveland Center
06:40AM 41.8819 -78.2461 344° North 341 392 28,000 -600 Descending Cleveland Center
06:41AM 41.9744 -78.2817 344° North 341 392 28,000  Level Cleveland Center
06:42AM 42.0711 -78.3175 345° North 341 392 28,000  Level Cleveland Center
06:43AM 42.1636 -78.3533 344° North 341 392 28,000  Level Cleveland Center
06:44AM 42.2539 -78.3867 345° North 348 400 28,000  Level Cleveland Center
06:45AM 42.3483 -78.4228 344° North 348 400 28,000  Level Cleveland Center
06:46AM 42.4447 -78.4589 345° North 348 400 28,000  Level Cleveland Center
06:47AM 42.5394 -78.4978 343° North 348 400 28,000 -240 Level Cleveland Center
06:48AM 42.6358 -78.5342 344° North 348 400 27,600 -720 Descending Cleveland Center
06:49AM 42.7303 -78.5678 345° North 348 400 26,600 -1,020 Descending Cleveland Center
06:50AM 42.8289 -78.6072 344° North 353 406 25,600 -1,560 Descending Cleveland Center
06:51AM 42.9214 -78.6467 343° North 353 406 23,500 -1,860 Descending Cleveland Center
06:52AM 42.9833 -78.7414 312° West 335 386 21,900 -1,620 Descending Cleveland Center
06:54AM 43.1000 -78.9500 307° West 320 368 18,300 -1,560 Descending Toronto Center
06:55AM 43.1500 -79.0333 309° West 310 357 16,900 -1,500 Descending Toronto Center
06:56AM 43.2000 -79.1500 300° West 310 357 15,300 -1,500 Descending Toronto Center
06:57AM 43.2333 -79.2167 304° West 300 345 13,900 -1,500 Descending Toronto Center
06:58AM 43.2833 -79.3167 305° West 300 345 12,400 -1,500 Descending Toronto Center
06:59AM 43.3667 -79.3500 344° North 300 345 10,900 -1,440 Descending Toronto Center
07:00AM 43.4500 -79.4000 336° Northwest 300 345 9,600 -1,260 Descending Toronto Center
07:01AM 43.5167 -79.4333 340° North 300 345 8,400 -1,140 Descending Toronto Center
07:02AM 43.5667 -79.5167 310° West 260 299 7,400 -1,200 Descending Toronto Center
07:03AM 43.5333 -79.5833 235° Southwest 240 276 6,000 -1,200 Descending Toronto Center
07:04AM 43.5167 -79.6500 251° West 210 242 5,000 -1,320 Descending Toronto Center
07:05AM 43.5667 -79.7000 324° Northwest 220 253 3,400 -1,500 Descending Toronto Center
07:06AM 43.6000 -79.6500 47° Northeast 210 242 2,100 -1,260 Descending Toronto Center
07:07AM 43.6333 -79.6167 36° Northeast 150 173 900 -1,200 Descending Toronto Center